sensor_id;sensor_type;location;lat;lon;timestamp;P1;durP1;ratioP1;P2;durP2;ratioP2
49730;SDS011;35622;52.008;5.426;2023-07-20T00:01:31;9.32;;;6.10;;
49730;SDS011;35622;52.008;5.426;2023-07-20T00:03:56;8.68;;;5.65;;
49730;SDS011;35622;52.008;5.426;2023-07-20T00:06:22;9.07;;;6.63;;
49730;SDS011;35622;52.008;5.426;2023-07-20T00:08:49;9.68;;;6.80;;
49730;SDS011;35622;52.008;5.426;2023-07-20T00:11:15;8.98;;;6.70;;
49730;SDS011;35622;52.008;5.426;2023-07-20T00:13:41;9.68;;;6.30;;
49730;SDS011;35622;52.008;5.426;2023-07-20T00:16:07;11.45;;;6.28;;
49730;SDS011;35622;52.008;5.426;2023-07-20T00:18:32;9.05;;;6.35;;
49730;SDS011;35622;52.008;5.426;2023-07-20T00:20:58;9.18;;;6.25;;
49730;SDS011;35622;52.008;5.426;2023-07-20T00:23:24;7.68;;;6.40;;
49730;SDS011;35622;52.008;5.426;2023-07-20T00:25:50;10.95;;;6.60;;
49730;SDS011;35622;52.008;5.426;2023-07-20T00:28:16;9.02;;;6.38;;
49730;SDS011;35622;52.008;5.426;2023-07-20T00:30:42;9.57;;;5.85;;
49730;SDS011;35622;52.008;5.426;2023-07-20T00:33:09;10.02;;;6.88;;
49730;SDS011;35622;52.008;5.426;2023-07-20T00:35:36;9.10;;;6.22;;
49730;SDS011;35622;52.008;5.426;2023-07-20T00:38:02;9.90;;;6.05;;
49730;SDS011;35622;52.008;5.426;2023-07-20T00:40:28;7.63;;;5.45;;
49730;SDS011;35622;52.008;5.426;2023-07-20T00:43:00;8.95;;;5.57;;
49730;SDS011;35622;52.008;5.426;2023-07-20T00:45:25;8.10;;;5.30;;
49730;SDS011;35622;52.008;5.426;2023-07-20T00:47:51;6.00;;;4.78;;
49730;SDS011;35622;52.008;5.426;2023-07-20T00:50:17;6.13;;;5.00;;
49730;SDS011;35622;52.008;5.426;2023-07-20T00:52:42;6.88;;;5.50;;
49730;SDS011;35622;52.008;5.426;2023-07-20T00:55:09;6.30;;;5.28;;
49730;SDS011;35622;52.008;5.426;2023-07-20T00:57:35;9.30;;;4.90;;
49730;SDS011;35622;52.008;5.426;2023-07-20T01:00:00;5.85;;;4.40;;
49730;SDS011;35622;52.008;5.426;2023-07-20T01:02:26;6.07;;;4.80;;
49730;SDS011;35622;52.008;5.426;2023-07-20T01:04:52;6.22;;;4.80;;
49730;SDS011;35622;52.008;5.426;2023-07-20T01:09:59;6.05;;;4.70;;
49730;SDS011;35622;52.008;5.426;2023-07-20T01:12:27;5.57;;;4.55;;
49730;SDS011;35622;52.008;5.426;2023-07-20T01:15:00;4.32;;;3.92;;
49730;SDS011;35622;52.008;5.426;2023-07-20T01:17:26;5.45;;;4.07;;
49730;SDS011;35622;52.008;5.426;2023-07-20T01:19:52;5.65;;;3.63;;
49730;SDS011;35622;52.008;5.426;2023-07-20T01:22:26;6.07;;;3.90;;
49730;SDS011;35622;52.008;5.426;2023-07-20T01:31:31;5.00;;;3.22;;
49730;SDS011;35622;52.008;5.426;2023-07-20T01:34:02;5.30;;;3.55;;
49730;SDS011;35622;52.008;5.426;2023-07-20T01:36:30;4.90;;;2.92;;
49730;SDS011;35622;52.008;5.426;2023-07-20T01:38:59;6.03;;;3.08;;
49730;SDS011;35622;52.008;5.426;2023-07-20T01:41:25;6.57;;;3.10;;
49730;SDS011;35622;52.008;5.426;2023-07-20T01:43:51;4.85;;;3.20;;
49730;SDS011;35622;52.008;5.426;2023-07-20T01:46:16;5.13;;;2.88;;
49730;SDS011;35622;52.008;5.426;2023-07-20T01:48:42;5.35;;;3.00;;
49730;SDS011;35622;52.008;5.426;2023-07-20T01:51:08;5.43;;;3.03;;
49730;SDS011;35622;52.008;5.426;2023-07-20T01:53:33;3.38;;;3.00;;
49730;SDS011;35622;52.008;5.426;2023-07-20T01:55:59;4.90;;;3.03;;
49730;SDS011;35622;52.008;5.426;2023-07-20T01:58:24;4.55;;;3.20;;
49730;SDS011;35622;52.008;5.426;2023-07-20T02:00:50;3.25;;;2.60;;
49730;SDS011;35622;52.008;5.426;2023-07-20T02:03:16;4.88;;;2.65;;
49730;SDS011;35622;52.008;5.426;2023-07-20T02:05:44;4.80;;;3.05;;
49730;SDS011;35622;52.008;5.426;2023-07-20T02:08:10;4.78;;;2.92;;
49730;SDS011;35622;52.008;5.426;2023-07-20T02:10:36;3.38;;;2.70;;
49730;SDS011;35622;52.008;5.426;2023-07-20T02:13:01;3.50;;;2.80;;
49730;SDS011;35622;52.008;5.426;2023-07-20T02:15:27;3.22;;;2.60;;
49730;SDS011;35622;52.008;5.426;2023-07-20T02:17:53;3.25;;;2.63;;
49730;SDS011;35622;52.008;5.426;2023-07-20T02:20:19;2.83;;;2.40;;
49730;SDS011;35622;52.008;5.426;2023-07-20T02:22:45;2.75;;;2.17;;
49730;SDS011;35622;52.008;5.426;2023-07-20T02:25:11;2.90;;;2.40;;
49730;SDS011;35622;52.008;5.426;2023-07-20T02:27:37;2.67;;;2.13;;
49730;SDS011;35622;52.008;5.426;2023-07-20T02:30:04;2.85;;;2.53;;
49730;SDS011;35622;52.008;5.426;2023-07-20T02:32:30;2.97;;;2.40;;
49730;SDS011;35622;52.008;5.426;2023-07-20T02:34:56;3.00;;;2.50;;
49730;SDS011;35622;52.008;5.426;2023-07-20T02:37:23;3.15;;;2.63;;
49730;SDS011;35622;52.008;5.426;2023-07-20T02:39:49;3.35;;;2.60;;
49730;SDS011;35622;52.008;5.426;2023-07-20T02:42:15;3.03;;;2.50;;
49730;SDS011;35622;52.008;5.426;2023-07-20T02:44:40;2.55;;;2.22;;
49730;SDS011;35622;52.008;5.426;2023-07-20T02:47:06;2.75;;;2.17;;
49730;SDS011;35622;52.008;5.426;2023-07-20T02:49:32;2.80;;;2.20;;
49730;SDS011;35622;52.008;5.426;2023-07-20T02:51:57;2.42;;;2.08;;
49730;SDS011;35622;52.008;5.426;2023-07-20T02:54:23;2.45;;;2.13;;
49730;SDS011;35622;52.008;5.426;2023-07-20T02:56:49;2.85;;;2.25;;
49730;SDS011;35622;52.008;5.426;2023-07-20T02:59:14;4.65;;;2.50;;
49730;SDS011;35622;52.008;5.426;2023-07-20T03:01:40;2.70;;;2.15;;
49730;SDS011;35622;52.008;5.426;2023-07-20T03:04:07;3.03;;;2.47;;
49730;SDS011;35622;52.008;5.426;2023-07-20T03:06:35;4.65;;;2.58;;
49730;SDS011;35622;52.008;5.426;2023-07-20T03:09:01;2.45;;;2.00;;
49730;SDS011;35622;52.008;5.426;2023-07-20T03:11:26;2.42;;;2.22;;
49730;SDS011;35622;52.008;5.426;2023-07-20T03:13:52;3.15;;;2.78;;
49730;SDS011;35622;52.008;5.426;2023-07-20T03:16:18;2.92;;;2.50;;
49730;SDS011;35622;52.008;5.426;2023-07-20T03:18:44;3.50;;;2.40;;
49730;SDS011;35622;52.008;5.426;2023-07-20T03:21:10;3.17;;;2.88;;
49730;SDS011;35622;52.008;5.426;2023-07-20T03:23:36;4.85;;;2.30;;
49730;SDS011;35622;52.008;5.426;2023-07-20T03:26:03;3.22;;;2.63;;
49730;SDS011;35622;52.008;5.426;2023-07-20T03:28:29;5.07;;;2.30;;
49730;SDS011;35622;52.008;5.426;2023-07-20T03:30:55;2.83;;;2.40;;
49730;SDS011;35622;52.008;5.426;2023-07-20T03:33:22;3.85;;;2.53;;
49730;SDS011;35622;52.008;5.426;2023-07-20T03:35:49;2.80;;;2.40;;
49730;SDS011;35622;52.008;5.426;2023-07-20T03:38:15;5.15;;;2.53;;
49730;SDS011;35622;52.008;5.426;2023-07-20T03:40:48;3.25;;;2.35;;
49730;SDS011;35622;52.008;5.426;2023-07-20T03:43:17;2.83;;;2.25;;
49730;SDS011;35622;52.008;5.426;2023-07-20T03:45:43;2.40;;;2.17;;
49730;SDS011;35622;52.008;5.426;2023-07-20T03:48:10;2.85;;;2.15;;
49730;SDS011;35622;52.008;5.426;2023-07-20T03:50:36;2.83;;;2.17;;
49730;SDS011;35622;52.008;5.426;2023-07-20T03:53:02;3.13;;;2.38;;
49730;SDS011;35622;52.008;5.426;2023-07-20T03:55:27;3.80;;;2.38;;
49730;SDS011;35622;52.008;5.426;2023-07-20T03:57:53;3.08;;;2.70;;
49730;SDS011;35622;52.008;5.426;2023-07-20T04:00:18;3.70;;;2.45;;
49730;SDS011;35622;52.008;5.426;2023-07-20T04:02:44;3.80;;;2.63;;
49730;SDS011;35622;52.008;5.426;2023-07-20T04:05:10;2.88;;;2.47;;
49730;SDS011;35622;52.008;5.426;2023-07-20T04:07:35;3.20;;;2.20;;
49730;SDS011;35622;52.008;5.426;2023-07-20T04:10:01;3.25;;;2.45;;
49730;SDS011;35622;52.008;5.426;2023-07-20T04:12:27;2.67;;;2.22;;
49730;SDS011;35622;52.008;5.426;2023-07-20T04:14:52;3.63;;;2.55;;
49730;SDS011;35622;52.008;5.426;2023-07-20T04:17:18;3.72;;;2.30;;
49730;SDS011;35622;52.008;5.426;2023-07-20T04:19:43;4.13;;;2.50;;
49730;SDS011;35622;52.008;5.426;2023-07-20T04:22:09;5.28;;;3.08;;
49730;SDS011;35622;52.008;5.426;2023-07-20T04:24:35;3.88;;;3.30;;
49730;SDS011;35622;52.008;5.426;2023-07-20T04:27:00;6.07;;;2.97;;
49730;SDS011;35622;52.008;5.426;2023-07-20T04:29:26;3.45;;;2.33;;
49730;SDS011;35622;52.008;5.426;2023-07-20T04:31:51;3.10;;;2.40;;
49730;SDS011;35622;52.008;5.426;2023-07-20T04:34:17;3.70;;;2.38;;
49730;SDS011;35622;52.008;5.426;2023-07-20T04:36:42;3.03;;;2.40;;
49730;SDS011;35622;52.008;5.426;2023-07-20T04:39:09;4.13;;;2.70;;
49730;SDS011;35622;52.008;5.426;2023-07-20T04:41:35;3.53;;;2.90;;
49730;SDS011;35622;52.008;5.426;2023-07-20T04:44:00;2.92;;;2.63;;
49730;SDS011;35622;52.008;5.426;2023-07-20T04:46:26;4.00;;;2.95;;
49730;SDS011;35622;52.008;5.426;2023-07-20T04:48:52;3.90;;;2.70;;
49730;SDS011;35622;52.008;5.426;2023-07-20T04:51:17;4.75;;;3.33;;
49730;SDS011;35622;52.008;5.426;2023-07-20T04:53:46;5.63;;;2.70;;
49730;SDS011;35622;52.008;5.426;2023-07-20T04:56:12;3.72;;;3.28;;
49730;SDS011;35622;52.008;5.426;2023-07-20T04:58:38;4.03;;;2.70;;
49730;SDS011;35622;52.008;5.426;2023-07-20T05:01:03;5.43;;;3.25;;
49730;SDS011;35622;52.008;5.426;2023-07-20T05:03:29;4.97;;;3.58;;
49730;SDS011;35622;52.008;5.426;2023-07-20T05:05:54;3.92;;;3.20;;
49730;SDS011;35622;52.008;5.426;2023-07-20T05:08:20;5.65;;;4.07;;
49730;SDS011;35622;52.008;5.426;2023-07-20T05:10:47;4.18;;;2.83;;
49730;SDS011;35622;52.008;5.426;2023-07-20T05:13:13;3.13;;;2.83;;
49730;SDS011;35622;52.008;5.426;2023-07-20T05:15:38;5.05;;;2.67;;
49730;SDS011;35622;52.008;5.426;2023-07-20T05:18:04;3.55;;;2.58;;
49730;SDS011;35622;52.008;5.426;2023-07-20T05:20:30;4.50;;;2.67;;
49730;SDS011;35622;52.008;5.426;2023-07-20T05:22:56;4.05;;;2.65;;
49730;SDS011;35622;52.008;5.426;2023-07-20T05:25:22;3.47;;;2.78;;
49730;SDS011;35622;52.008;5.426;2023-07-20T05:27:48;4.93;;;2.88;;
49730;SDS011;35622;52.008;5.426;2023-07-20T05:30:13;4.00;;;3.60;;
49730;SDS011;35622;52.008;5.426;2023-07-20T05:32:39;3.67;;;3.33;;
49730;SDS011;35622;52.008;5.426;2023-07-20T05:35:05;8.00;;;6.10;;
49730;SDS011;35622;52.008;5.426;2023-07-20T05:37:31;5.30;;;4.57;;
49730;SDS011;35622;52.008;5.426;2023-07-20T05:39:57;4.72;;;3.97;;
49730;SDS011;35622;52.008;5.426;2023-07-20T05:42:23;6.45;;;3.03;;
49730;SDS011;35622;52.008;5.426;2023-07-20T05:44:48;4.07;;;3.67;;
49730;SDS011;35622;52.008;5.426;2023-07-20T05:47:15;4.07;;;3.22;;
49730;SDS011;35622;52.008;5.426;2023-07-20T05:49:40;4.50;;;3.38;;
49730;SDS011;35622;52.008;5.426;2023-07-20T05:52:06;5.47;;;4.20;;
49730;SDS011;35622;52.008;5.426;2023-07-20T05:54:31;5.53;;;4.53;;
49730;SDS011;35622;52.008;5.426;2023-07-20T05:56:57;7.63;;;4.90;;
49730;SDS011;35622;52.008;5.426;2023-07-20T05:59:22;5.43;;;4.72;;
49730;SDS011;35622;52.008;5.426;2023-07-20T06:01:49;5.82;;;4.78;;
49730;SDS011;35622;52.008;5.426;2023-07-20T06:04:15;6.55;;;5.30;;
49730;SDS011;35622;52.008;5.426;2023-07-20T06:06:40;6.72;;;4.70;;
49730;SDS011;35622;52.008;5.426;2023-07-20T06:09:06;5.82;;;4.45;;
49730;SDS011;35622;52.008;5.426;2023-07-20T06:11:36;7.00;;;5.15;;
49730;SDS011;35622;52.008;5.426;2023-07-20T06:14:02;5.28;;;4.68;;
49730;SDS011;35622;52.008;5.426;2023-07-20T06:16:28;5.25;;;4.22;;
49730;SDS011;35622;52.008;5.426;2023-07-20T06:18:53;5.68;;;4.25;;
49730;SDS011;35622;52.008;5.426;2023-07-20T06:21:19;3.80;;;3.05;;
49730;SDS011;35622;52.008;5.426;2023-07-20T06:23:44;2.83;;;2.05;;
49730;SDS011;35622;52.008;5.426;2023-07-20T06:26:11;3.65;;;2.90;;
49730;SDS011;35622;52.008;5.426;2023-07-20T06:28:36;2.72;;;1.88;;
49730;SDS011;35622;52.008;5.426;2023-07-20T06:31:02;4.30;;;2.58;;
49730;SDS011;35622;52.008;5.426;2023-07-20T06:33:28;3.00;;;2.40;;
49730;SDS011;35622;52.008;5.426;2023-07-20T06:35:54;2.30;;;1.88;;
49730;SDS011;35622;52.008;5.426;2023-07-20T06:38:22;2.92;;;1.73;;
49730;SDS011;35622;52.008;5.426;2023-07-20T06:40:48;4.20;;;1.83;;
49730;SDS011;35622;52.008;5.426;2023-07-20T06:43:15;1.80;;;1.52;;
49730;SDS011;35622;52.008;5.426;2023-07-20T06:45:41;1.85;;;1.65;;
49730;SDS011;35622;52.008;5.426;2023-07-20T06:48:07;2.15;;;1.20;;
49730;SDS011;35622;52.008;5.426;2023-07-20T06:50:32;1.05;;;0.93;;
49730;SDS011;35622;52.008;5.426;2023-07-20T06:52:58;2.97;;;1.48;;
49730;SDS011;35622;52.008;5.426;2023-07-20T06:55:24;2.38;;;1.10;;
49730;SDS011;35622;52.008;5.426;2023-07-20T06:57:50;1.27;;;1.10;;
49730;SDS011;35622;52.008;5.426;2023-07-20T07:00:16;1.67;;;0.80;;
49730;SDS011;35622;52.008;5.426;2023-07-20T07:02:42;1.48;;;0.85;;
49730;SDS011;35622;52.008;5.426;2023-07-20T07:05:08;1.42;;;0.90;;
49730;SDS011;35622;52.008;5.426;2023-07-20T07:07:34;1.63;;;0.90;;
49730;SDS011;35622;52.008;5.426;2023-07-20T07:09:59;1.40;;;1.08;;
49730;SDS011;35622;52.008;5.426;2023-07-20T07:12:25;0.80;;;0.80;;
49730;SDS011;35622;52.008;5.426;2023-07-20T07:14:51;1.83;;;1.00;;
49730;SDS011;35622;52.008;5.426;2023-07-20T07:17:17;2.90;;;1.00;;
49730;SDS011;35622;52.008;5.426;2023-07-20T07:19:43;1.27;;;0.95;;
49730;SDS011;35622;52.008;5.426;2023-07-20T07:22:09;1.92;;;1.30;;
49730;SDS011;35622;52.008;5.426;2023-07-20T07:24:35;2.42;;;1.30;;
49730;SDS011;35622;52.008;5.426;2023-07-20T07:27:01;1.83;;;1.15;;
49730;SDS011;35622;52.008;5.426;2023-07-20T07:29:27;1.58;;;1.00;;
49730;SDS011;35622;52.008;5.426;2023-07-20T07:31:53;2.30;;;1.10;;
49730;SDS011;35622;52.008;5.426;2023-07-20T07:34:18;3.72;;;1.20;;
49730;SDS011;35622;52.008;5.426;2023-07-20T07:36:44;2.05;;;1.00;;
49730;SDS011;35622;52.008;5.426;2023-07-20T07:39:10;1.20;;;1.00;;
49730;SDS011;35622;52.008;5.426;2023-07-20T07:41:35;2.05;;;0.95;;
49730;SDS011;35622;52.008;5.426;2023-07-20T07:44:01;1.83;;;0.90;;
49730;SDS011;35622;52.008;5.426;2023-07-20T07:46:27;1.45;;;1.00;;
49730;SDS011;35622;52.008;5.426;2023-07-20T07:48:52;1.33;;;0.80;;
49730;SDS011;35622;52.008;5.426;2023-07-20T07:51:18;0.85;;;0.60;;
49730;SDS011;35622;52.008;5.426;2023-07-20T07:53:44;1.90;;;0.80;;
49730;SDS011;35622;52.008;5.426;2023-07-20T07:56:10;0.73;;;0.73;;
49730;SDS011;35622;52.008;5.426;2023-07-20T07:58:36;0.68;;;0.50;;
49730;SDS011;35622;52.008;5.426;2023-07-20T08:01:02;0.98;;;0.50;;
49730;SDS011;35622;52.008;5.426;2023-07-20T08:03:27;0.65;;;0.60;;
49730;SDS011;35622;52.008;5.426;2023-07-20T08:05:53;3.20;;;0.60;;
49730;SDS011;35622;52.008;5.426;2023-07-20T08:08:20;0.80;;;0.50;;
49730;SDS011;35622;52.008;5.426;2023-07-20T08:10:46;0.38;;;0.38;;
49730;SDS011;35622;52.008;5.426;2023-07-20T08:13:12;0.60;;;0.52;;
49730;SDS011;35622;52.008;5.426;2023-07-20T08:15:38;1.52;;;0.52;;
49730;SDS011;35622;52.008;5.426;2023-07-20T08:18:04;1.48;;;0.50;;
49730;SDS011;35622;52.008;5.426;2023-07-20T08:20:30;2.70;;;0.50;;
49730;SDS011;35622;52.008;5.426;2023-07-20T08:22:57;1.20;;;0.60;;
49730;SDS011;35622;52.008;5.426;2023-07-20T08:25:25;1.42;;;0.60;;
49730;SDS011;35622;52.008;5.426;2023-07-20T08:27:51;1.48;;;0.60;;
49730;SDS011;35622;52.008;5.426;2023-07-20T08:30:16;1.35;;;0.55;;
49730;SDS011;35622;52.008;5.426;2023-07-20T08:32:42;1.15;;;0.50;;
49730;SDS011;35622;52.008;5.426;2023-07-20T08:35:08;1.08;;;0.60;;
49730;SDS011;35622;52.008;5.426;2023-07-20T08:37:34;0.63;;;0.52;;
49730;SDS011;35622;52.008;5.426;2023-07-20T08:39:59;0.52;;;0.50;;
49730;SDS011;35622;52.008;5.426;2023-07-20T08:42:25;0.70;;;0.57;;
49730;SDS011;35622;52.008;5.426;2023-07-20T08:44:52;0.90;;;0.57;;
49730;SDS011;35622;52.008;5.426;2023-07-20T08:47:19;2.13;;;0.60;;
49730;SDS011;35622;52.008;5.426;2023-07-20T08:49:48;1.15;;;0.60;;
49730;SDS011;35622;52.008;5.426;2023-07-20T08:52:13;1.02;;;0.60;;
49730;SDS011;35622;52.008;5.426;2023-07-20T08:54:39;0.55;;;0.50;;
49730;SDS011;35622;52.008;5.426;2023-07-20T08:57:05;1.50;;;0.75;;
49730;SDS011;35622;52.008;5.426;2023-07-20T08:59:31;0.52;;;0.50;;
49730;SDS011;35622;52.008;5.426;2023-07-20T09:01:59;0.70;;;0.50;;
49730;SDS011;35622;52.008;5.426;2023-07-20T09:04:25;0.50;;;0.50;;
49730;SDS011;35622;52.008;5.426;2023-07-20T09:06:51;0.65;;;0.50;;
49730;SDS011;35622;52.008;5.426;2023-07-20T09:09:17;0.88;;;0.50;;
49730;SDS011;35622;52.008;5.426;2023-07-20T09:11:42;0.75;;;0.47;;
49730;SDS011;35622;52.008;5.426;2023-07-20T09:14:11;1.38;;;0.60;;
49730;SDS011;35622;52.008;5.426;2023-07-20T09:17:10;8.07;;;0.60;;
49730;SDS011;35622;52.008;5.426;2023-07-20T09:19:29;1.55;;;0.80;;
49730;SDS011;35622;52.008;5.426;2023-07-20T09:21:54;1.08;;;0.70;;
49730;SDS011;35622;52.008;5.426;2023-07-20T09:24:20;1.13;;;0.70;;
49730;SDS011;35622;52.008;5.426;2023-07-20T09:26:47;0.60;;;0.60;;
49730;SDS011;35622;52.008;5.426;2023-07-20T09:29:17;1.20;;;0.50;;
49730;SDS011;35622;52.008;5.426;2023-07-20T09:31:44;1.33;;;0.55;;
49730;SDS011;35622;52.008;5.426;2023-07-20T09:34:30;0.77;;;0.50;;
49730;SDS011;35622;52.008;5.426;2023-07-20T09:36:59;0.60;;;0.50;;
49730;SDS011;35622;52.008;5.426;2023-07-20T09:39:25;0.90;;;0.70;;
49730;SDS011;35622;52.008;5.426;2023-07-20T09:41:51;2.45;;;0.70;;
49730;SDS011;35622;52.008;5.426;2023-07-20T09:44:17;1.75;;;0.40;;
49730;SDS011;35622;52.008;5.426;2023-07-20T09:46:46;0.43;;;0.40;;
49730;SDS011;35622;52.008;5.426;2023-07-20T09:49:13;0.98;;;0.40;;
49730;SDS011;35622;52.008;5.426;2023-07-20T09:51:39;1.70;;;0.70;;
49730;SDS011;35622;52.008;5.426;2023-07-20T09:54:09;1.20;;;0.50;;
49730;SDS011;35622;52.008;5.426;2023-07-20T09:56:36;0.60;;;0.50;;
49730;SDS011;35622;52.008;5.426;2023-07-20T09:59:04;1.05;;;0.50;;
49730;SDS011;35622;52.008;5.426;2023-07-20T10:01:29;0.50;;;0.50;;
49730;SDS011;35622;52.008;5.426;2023-07-20T10:03:58;0.77;;;0.40;;
49730;SDS011;35622;52.008;5.426;2023-07-20T10:06:26;1.10;;;0.60;;
49730;SDS011;35622;52.008;5.426;2023-07-20T10:08:54;1.02;;;0.50;;
49730;SDS011;35622;52.008;5.426;2023-07-20T10:11:22;0.50;;;0.50;;
49730;SDS011;35622;52.008;5.426;2023-07-20T10:13:54;2.95;;;0.70;;
49730;SDS011;35622;52.008;5.426;2023-07-20T10:16:58;0.63;;;0.60;;
49730;SDS011;35622;52.008;5.426;2023-07-20T10:19:19;0.60;;;0.30;;
49730;SDS011;35622;52.008;5.426;2023-07-20T10:21:51;1.17;;;0.60;;
49730;SDS011;35622;52.008;5.426;2023-07-20T10:24:26;0.50;;;0.40;;
49730;SDS011;35622;52.008;5.426;2023-07-20T10:26:53;0.40;;;0.35;;
49730;SDS011;35622;52.008;5.426;2023-07-20T10:29:20;0.60;;;0.40;;
49730;SDS011;35622;52.008;5.426;2023-07-20T10:31:48;0.45;;;0.40;;
49730;SDS011;35622;52.008;5.426;2023-07-20T10:34:14;2.15;;;0.40;;
49730;SDS011;35622;52.008;5.426;2023-07-20T10:36:44;1.00;;;0.45;;
49730;SDS011;35622;52.008;5.426;2023-07-20T10:39:27;1.98;;;0.52;;
49730;SDS011;35622;52.008;5.426;2023-07-20T10:42:08;1.00;;;0.68;;
49730;SDS011;35622;52.008;5.426;2023-07-20T10:44:38;0.50;;;0.50;;
49730;SDS011;35622;52.008;5.426;2023-07-20T10:47:08;0.80;;;0.70;;
49730;SDS011;35622;52.008;5.426;2023-07-20T10:49:35;1.80;;;0.80;;
49730;SDS011;35622;52.008;5.426;2023-07-20T10:52:25;0.63;;;0.40;;
49730;SDS011;35622;52.008;5.426;2023-07-20T10:54:51;1.02;;;0.60;;
49730;SDS011;35622;52.008;5.426;2023-07-20T10:57:37;0.93;;;0.50;;
49730;SDS011;35622;52.008;5.426;2023-07-20T11:00:09;1.10;;;0.60;;
49730;SDS011;35622;52.008;5.426;2023-07-20T11:02:43;1.40;;;0.50;;
49730;SDS011;35622;52.008;5.426;2023-07-20T11:05:31;0.95;;;0.50;;
49730;SDS011;35622;52.008;5.426;2023-07-20T11:08:00;2.25;;;0.70;;
49730;SDS011;35622;52.008;5.426;2023-07-20T11:10:27;1.05;;;0.60;;
49730;SDS011;35622;52.008;5.426;2023-07-20T11:15:44;1.45;;;0.95;;
49730;SDS011;35622;52.008;5.426;2023-07-20T11:18:30;1.20;;;0.90;;
49730;SDS011;35622;52.008;5.426;2023-07-20T11:20:59;1.02;;;0.90;;
49730;SDS011;35622;52.008;5.426;2023-07-20T11:23:24;1.25;;;1.05;;
49730;SDS011;35622;52.008;5.426;2023-07-20T11:25:50;0.68;;;0.60;;
49730;SDS011;35622;52.008;5.426;2023-07-20T11:28:16;1.17;;;0.80;;
49730;SDS011;35622;52.008;5.426;2023-07-20T11:30:41;3.35;;;0.70;;
49730;SDS011;35622;52.008;5.426;2023-07-20T11:33:10;1.25;;;0.80;;
49730;SDS011;35622;52.008;5.426;2023-07-20T11:35:45;1.00;;;0.63;;
49730;SDS011;35622;52.008;5.426;2023-07-20T11:38:15;0.88;;;0.80;;
49730;SDS011;35622;52.008;5.426;2023-07-20T11:40:44;1.38;;;0.80;;
49730;SDS011;35622;52.008;5.426;2023-07-20T11:43:11;3.22;;;0.90;;
49730;SDS011;35622;52.008;5.426;2023-07-20T11:45:39;1.38;;;0.70;;
49730;SDS011;35622;52.008;5.426;2023-07-20T11:48:05;1.83;;;0.60;;
49730;SDS011;35622;52.008;5.426;2023-07-20T11:50:30;1.05;;;0.60;;
49730;SDS011;35622;52.008;5.426;2023-07-20T11:52:57;0.88;;;0.52;;
49730;SDS011;35622;52.008;5.426;2023-07-20T11:55:23;0.50;;;0.50;;
49730;SDS011;35622;52.008;5.426;2023-07-20T11:58:04;1.40;;;0.95;;
49730;SDS011;35622;52.008;5.426;2023-07-20T12:00:31;1.58;;;0.90;;
49730;SDS011;35622;52.008;5.426;2023-07-20T12:02:57;1.38;;;0.70;;
49730;SDS011;35622;52.008;5.426;2023-07-20T12:05:23;1.92;;;0.80;;
49730;SDS011;35622;52.008;5.426;2023-07-20T12:07:49;1.92;;;0.80;;
49730;SDS011;35622;52.008;5.426;2023-07-20T12:10:22;0.80;;;0.60;;
49730;SDS011;35622;52.008;5.426;2023-07-20T12:12:52;0.70;;;0.68;;
49730;SDS011;35622;52.008;5.426;2023-07-20T12:15:22;1.38;;;0.82;;
49730;SDS011;35622;52.008;5.426;2023-07-20T12:17:49;0.88;;;0.68;;
49730;SDS011;35622;52.008;5.426;2023-07-20T12:22:57;1.20;;;0.50;;
49730;SDS011;35622;52.008;5.426;2023-07-20T12:25:31;0.73;;;0.60;;
49730;SDS011;35622;52.008;5.426;2023-07-20T12:28:19;0.93;;;0.82;;
49730;SDS011;35622;52.008;5.426;2023-07-20T12:30:45;0.90;;;0.80;;
49730;SDS011;35622;52.008;5.426;2023-07-20T12:33:12;1.10;;;0.60;;
49730;SDS011;35622;52.008;5.426;2023-07-20T12:35:40;1.85;;;0.80;;
49730;SDS011;35622;52.008;5.426;2023-07-20T12:38:06;0.88;;;0.80;;
49730;SDS011;35622;52.008;5.426;2023-07-20T12:40:31;1.10;;;0.60;;
49730;SDS011;35622;52.008;5.426;2023-07-20T12:42:57;1.83;;;0.95;;
49730;SDS011;35622;52.008;5.426;2023-07-20T12:45:23;1.48;;;0.77;;
49730;SDS011;35622;52.008;5.426;2023-07-20T12:47:48;1.85;;;0.63;;
49730;SDS011;35622;52.008;5.426;2023-07-20T12:50:14;0.98;;;0.68;;
49730;SDS011;35622;52.008;5.426;2023-07-20T12:52:40;1.58;;;1.00;;
49730;SDS011;35622;52.008;5.426;2023-07-20T12:55:06;1.33;;;0.80;;
49730;SDS011;35622;52.008;5.426;2023-07-20T12:57:33;2.63;;;0.98;;
49730;SDS011;35622;52.008;5.426;2023-07-20T13:00:00;1.55;;;0.90;;
49730;SDS011;35622;52.008;5.426;2023-07-20T13:02:30;1.80;;;1.00;;
49730;SDS011;35622;52.008;5.426;2023-07-20T13:04:57;1.50;;;1.10;;
49730;SDS011;35622;52.008;5.426;2023-07-20T13:10:14;1.67;;;0.80;;
49730;SDS011;35622;52.008;5.426;2023-07-20T13:12:40;1.15;;;0.77;;
49730;SDS011;35622;52.008;5.426;2023-07-20T13:15:06;2.45;;;1.00;;
49730;SDS011;35622;52.008;5.426;2023-07-20T13:17:34;2.55;;;1.10;;
49730;SDS011;35622;52.008;5.426;2023-07-20T13:20:00;1.75;;;0.90;;
49730;SDS011;35622;52.008;5.426;2023-07-20T13:22:26;0.80;;;0.80;;
49730;SDS011;35622;52.008;5.426;2023-07-20T13:24:52;1.52;;;0.70;;
49730;SDS011;35622;52.008;5.426;2023-07-20T13:27:18;1.90;;;0.80;;
49730;SDS011;35622;52.008;5.426;2023-07-20T13:29:44;1.38;;;0.80;;
49730;SDS011;35622;52.008;5.426;2023-07-20T13:32:12;2.00;;;0.80;;
49730;SDS011;35622;52.008;5.426;2023-07-20T13:34:40;1.30;;;0.80;;
49730;SDS011;35622;52.008;5.426;2023-07-20T13:37:06;1.35;;;0.90;;
49730;SDS011;35622;52.008;5.426;2023-07-20T13:39:31;1.00;;;0.80;;
49730;SDS011;35622;52.008;5.426;2023-07-20T13:41:57;2.15;;;0.90;;
49730;SDS011;35622;52.008;5.426;2023-07-20T13:44:22;2.20;;;1.00;;
49730;SDS011;35622;52.008;5.426;2023-07-20T13:46:48;2.15;;;1.05;;
49730;SDS011;35622;52.008;5.426;2023-07-20T13:49:14;2.13;;;0.90;;
49730;SDS011;35622;52.008;5.426;2023-07-20T13:51:43;3.30;;;0.98;;
49730;SDS011;35622;52.008;5.426;2023-07-20T13:54:08;4.10;;;0.90;;
49730;SDS011;35622;52.008;5.426;2023-07-20T13:56:34;1.85;;;0.90;;
49730;SDS011;35622;52.008;5.426;2023-07-20T13:59:00;1.77;;;1.20;;
49730;SDS011;35622;52.008;5.426;2023-07-20T14:01:26;1.25;;;0.82;;
49730;SDS011;35622;52.008;5.426;2023-07-20T14:03:53;2.00;;;1.30;;
49730;SDS011;35622;52.008;5.426;2023-07-20T14:06:19;1.60;;;1.35;;
49730;SDS011;35622;52.008;5.426;2023-07-20T14:08:45;1.58;;;1.10;;
49730;SDS011;35622;52.008;5.426;2023-07-20T14:11:12;2.70;;;1.00;;
49730;SDS011;35622;52.008;5.426;2023-07-20T14:13:38;3.45;;;0.90;;
49730;SDS011;35622;52.008;5.426;2023-07-20T14:16:03;1.10;;;1.00;;
49730;SDS011;35622;52.008;5.426;2023-07-20T14:18:29;1.35;;;1.00;;
49730;SDS011;35622;52.008;5.426;2023-07-20T14:20:55;0.60;;;0.60;;
49730;SDS011;35622;52.008;5.426;2023-07-20T14:23:20;1.35;;;0.85;;
49730;SDS011;35622;52.008;5.426;2023-07-20T14:25:46;1.08;;;0.90;;
49730;SDS011;35622;52.008;5.426;2023-07-20T14:28:11;1.27;;;0.90;;
49730;SDS011;35622;52.008;5.426;2023-07-20T14:30:37;1.95;;;0.80;;
49730;SDS011;35622;52.008;5.426;2023-07-20T14:33:03;1.33;;;1.00;;
49730;SDS011;35622;52.008;5.426;2023-07-20T14:35:28;2.05;;;0.70;;
49730;SDS011;35622;52.008;5.426;2023-07-20T14:37:54;1.05;;;0.70;;
49730;SDS011;35622;52.008;5.426;2023-07-20T14:40:20;1.05;;;0.70;;
49730;SDS011;35622;52.008;5.426;2023-07-20T14:42:46;1.52;;;0.90;;
49730;SDS011;35622;52.008;5.426;2023-07-20T14:45:11;0.82;;;0.80;;
49730;SDS011;35622;52.008;5.426;2023-07-20T14:47:37;2.50;;;0.90;;
49730;SDS011;35622;52.008;5.426;2023-07-20T14:50:03;1.08;;;0.65;;
49730;SDS011;35622;52.008;5.426;2023-07-20T14:52:29;1.80;;;1.27;;
49730;SDS011;35622;52.008;5.426;2023-07-20T14:54:54;2.53;;;1.08;;
49730;SDS011;35622;52.008;5.426;2023-07-20T14:57:20;1.40;;;0.90;;
49730;SDS011;35622;52.008;5.426;2023-07-20T14:59:48;1.30;;;0.85;;
49730;SDS011;35622;52.008;5.426;2023-07-20T15:02:14;2.25;;;0.90;;
49730;SDS011;35622;52.008;5.426;2023-07-20T15:04:46;1.00;;;0.70;;